sensor_id;sensor_type;location;lat;lon;timestamp;P1;durP1;ratioP1;P2;durP2;ratioP2
64633;SDS011;51043;52.406;9.690;2024-01-30T00:01:40;12.80;;;9.73;;
64633;SDS011;51043;52.406;9.690;2024-01-30T00:04:09;12.83;;;8.60;;
64633;SDS011;51043;52.406;9.690;2024-01-30T00:06:36;14.23;;;10.20;;
64633;SDS011;51043;52.406;9.690;2024-01-30T00:09:07;11.97;;;9.47;;
64633;SDS011;51043;52.406;9.690;2024-01-30T00:11:35;11.50;;;8.50;;
64633;SDS011;51043;52.406;9.690;2024-01-30T00:14:04;15.70;;;9.40;;
64633;SDS011;51043;52.406;9.690;2024-01-30T00:16:33;11.93;;;9.10;;
64633;SDS011;51043;52.406;9.690;2024-01-30T00:19:01;11.43;;;8.63;;
64633;SDS011;51043;52.406;9.690;2024-01-30T00:21:30;13.40;;;9.13;;
64633;SDS011;51043;52.406;9.690;2024-01-30T00:23:58;12.67;;;9.10;;
64633;SDS011;51043;52.406;9.690;2024-01-30T00:26:31;14.73;;;9.27;;
64633;SDS011;51043;52.406;9.690;2024-01-30T00:28:59;14.23;;;9.70;;
64633;SDS011;51043;52.406;9.690;2024-01-30T00:31:27;14.73;;;9.50;;
64633;SDS011;51043;52.406;9.690;2024-01-30T00:33:56;12.67;;;8.77;;
64633;SDS011;51043;52.406;9.690;2024-01-30T00:36:23;15.70;;;9.33;;
64633;SDS011;51043;52.406;9.690;2024-01-30T00:38:52;14.17;;;9.70;;
64633;SDS011;51043;52.406;9.690;2024-01-30T00:41:19;15.23;;;9.70;;
64633;SDS011;51043;52.406;9.690;2024-01-30T00:43:49;13.93;;;9.67;;
64633;SDS011;51043;52.406;9.690;2024-01-30T00:46:19;19.37;;;9.87;;
64633;SDS011;51043;52.406;9.690;2024-01-30T00:48:47;12.23;;;9.27;;
64633;SDS011;51043;52.406;9.690;2024-01-30T00:51:17;14.00;;;10.60;;
64633;SDS011;51043;52.406;9.690;2024-01-30T00:53:45;15.03;;;10.40;;
64633;SDS011;51043;52.406;9.690;2024-01-30T00:56:13;15.43;;;10.17;;
64633;SDS011;51043;52.406;9.690;2024-01-30T00:58:44;18.33;;;9.60;;
64633;SDS011;51043;52.406;9.690;2024-01-30T01:01:13;13.60;;;9.53;;
64633;SDS011;51043;52.406;9.690;2024-01-30T01:03:42;12.30;;;9.50;;
64633;SDS011;51043;52.406;9.690;2024-01-30T01:06:11;10.97;;;9.07;;
64633;SDS011;51043;52.406;9.690;2024-01-30T01:08:39;12.67;;;9.40;;
64633;SDS011;51043;52.406;9.690;2024-01-30T01:11:07;13.77;;;10.03;;
64633;SDS011;51043;52.406;9.690;2024-01-30T01:13:35;15.47;;;9.87;;
64633;SDS011;51043;52.406;9.690;2024-01-30T01:16:04;15.20;;;9.87;;
64633;SDS011;51043;52.406;9.690;2024-01-30T01:18:33;13.03;;;9.63;;
64633;SDS011;51043;52.406;9.690;2024-01-30T01:21:01;16.60;;;10.27;;
64633;SDS011;51043;52.406;9.690;2024-01-30T01:23:29;13.73;;;9.57;;
64633;SDS011;51043;52.406;9.690;2024-01-30T01:25:58;15.40;;;10.53;;
64633;SDS011;51043;52.406;9.690;2024-01-30T01:28:27;13.17;;;10.23;;
64633;SDS011;51043;52.406;9.690;2024-01-30T01:30:55;13.20;;;9.70;;
64633;SDS011;51043;52.406;9.690;2024-01-30T01:33:31;14.93;;;10.43;;
64633;SDS011;51043;52.406;9.690;2024-01-30T01:36:01;16.80;;;10.97;;
64633;SDS011;51043;52.406;9.690;2024-01-30T01:38:29;12.87;;;10.13;;
64633;SDS011;51043;52.406;9.690;2024-01-30T01:40:57;13.23;;;10.30;;
64633;SDS011;51043;52.406;9.690;2024-01-30T01:43:25;13.37;;;9.77;;
64633;SDS011;51043;52.406;9.690;2024-01-30T01:45:53;15.07;;;10.90;;
64633;SDS011;51043;52.406;9.690;2024-01-30T01:48:22;13.17;;;9.90;;
64633;SDS011;51043;52.406;9.690;2024-01-30T01:50:50;13.77;;;9.50;;
64633;SDS011;51043;52.406;9.690;2024-01-30T01:53:20;15.17;;;10.90;;
64633;SDS011;51043;52.406;9.690;2024-01-30T01:55:49;15.37;;;10.47;;
64633;SDS011;51043;52.406;9.690;2024-01-30T01:58:19;13.97;;;10.07;;
64633;SDS011;51043;52.406;9.690;2024-01-30T02:00:48;17.30;;;10.27;;
64633;SDS011;51043;52.406;9.690;2024-01-30T02:03:18;14.30;;;10.17;;
64633;SDS011;51043;52.406;9.690;2024-01-30T02:05:48;15.47;;;10.27;;
64633;SDS011;51043;52.406;9.690;2024-01-30T02:08:17;14.50;;;10.43;;
64633;SDS011;51043;52.406;9.690;2024-01-30T02:10:47;13.63;;;10.23;;
64633;SDS011;51043;52.406;9.690;2024-01-30T02:13:16;15.77;;;11.60;;
64633;SDS011;51043;52.406;9.690;2024-01-30T02:15:48;17.03;;;10.63;;
64633;SDS011;51043;52.406;9.690;2024-01-30T02:18:18;13.77;;;10.77;;
64633;SDS011;51043;52.406;9.690;2024-01-30T02:20:47;14.97;;;11.13;;
64633;SDS011;51043;52.406;9.690;2024-01-30T02:23:17;13.53;;;10.57;;
64633;SDS011;51043;52.406;9.690;2024-01-30T02:25:47;20.97;;;11.13;;
64633;SDS011;51043;52.406;9.690;2024-01-30T02:28:16;14.23;;;10.43;;
64633;SDS011;51043;52.406;9.690;2024-01-30T02:30:45;14.80;;;10.97;;
64633;SDS011;51043;52.406;9.690;2024-01-30T02:33:14;16.83;;;11.43;;
64633;SDS011;51043;52.406;9.690;2024-01-30T02:35:44;16.40;;;10.87;;
64633;SDS011;51043;52.406;9.690;2024-01-30T02:38:12;19.03;;;10.90;;
64633;SDS011;51043;52.406;9.690;2024-01-30T02:40:42;17.33;;;10.87;;
64633;SDS011;51043;52.406;9.690;2024-01-30T02:43:10;11.63;;;9.83;;
64633;SDS011;51043;52.406;9.690;2024-01-30T02:45:38;16.13;;;10.67;;
64633;SDS011;51043;52.406;9.690;2024-01-30T02:48:06;13.83;;;10.50;;
64633;SDS011;51043;52.406;9.690;2024-01-30T02:50:34;13.73;;;10.00;;
64633;SDS011;51043;52.406;9.690;2024-01-30T02:53:03;13.63;;;10.30;;
64633;SDS011;51043;52.406;9.690;2024-01-30T02:55:31;17.67;;;11.50;;
64633;SDS011;51043;52.406;9.690;2024-01-30T02:58:00;16.70;;;10.83;;
64633;SDS011;51043;52.406;9.690;2024-01-30T03:00:28;16.70;;;11.10;;
64633;SDS011;51043;52.406;9.690;2024-01-30T03:02:56;15.67;;;11.27;;
64633;SDS011;51043;52.406;9.690;2024-01-30T03:05:24;15.23;;;10.33;;
64633;SDS011;51043;52.406;9.690;2024-01-30T03:07:53;17.87;;;10.90;;
64633;SDS011;51043;52.406;9.690;2024-01-30T03:10:21;15.13;;;10.30;;
64633;SDS011;51043;52.406;9.690;2024-01-30T03:12:49;16.03;;;10.57;;
64633;SDS011;51043;52.406;9.690;2024-01-30T03:15:19;15.87;;;10.60;;
64633;SDS011;51043;52.406;9.690;2024-01-30T03:17:47;15.50;;;10.57;;
64633;SDS011;51043;52.406;9.690;2024-01-30T03:20:15;16.57;;;10.53;;
64633;SDS011;51043;52.406;9.690;2024-01-30T03:22:43;18.27;;;11.30;;
64633;SDS011;51043;52.406;9.690;2024-01-30T03:25:11;17.47;;;10.57;;
64633;SDS011;51043;52.406;9.690;2024-01-30T03:27:39;16.63;;;11.07;;
64633;SDS011;51043;52.406;9.690;2024-01-30T03:30:08;15.17;;;10.43;;
64633;SDS011;51043;52.406;9.690;2024-01-30T03:32:37;18.07;;;11.63;;
64633;SDS011;51043;52.406;9.690;2024-01-30T03:35:06;16.13;;;11.23;;
64633;SDS011;51043;52.406;9.690;2024-01-30T03:37:35;14.37;;;11.17;;
64633;SDS011;51043;52.406;9.690;2024-01-30T03:40:04;13.77;;;11.30;;
64633;SDS011;51043;52.406;9.690;2024-01-30T03:42:36;14.83;;;10.30;;
64633;SDS011;51043;52.406;9.690;2024-01-30T03:45:05;16.73;;;11.13;;
64633;SDS011;51043;52.406;9.690;2024-01-30T03:47:34;16.80;;;11.67;;
64633;SDS011;51043;52.406;9.690;2024-01-30T03:50:03;13.97;;;10.60;;
64633;SDS011;51043;52.406;9.690;2024-01-30T03:52:32;16.03;;;11.33;;
64633;SDS011;51043;52.406;9.690;2024-01-30T03:55:00;14.83;;;10.77;;
64633;SDS011;51043;52.406;9.690;2024-01-30T03:57:28;16.20;;;11.43;;
64633;SDS011;51043;52.406;9.690;2024-01-30T03:59:56;17.40;;;11.60;;
64633;SDS011;51043;52.406;9.690;2024-01-30T04:02:26;14.10;;;11.70;;
64633;SDS011;51043;52.406;9.690;2024-01-30T04:04:54;17.87;;;11.80;;
64633;SDS011;51043;52.406;9.690;2024-01-30T04:07:24;13.67;;;11.20;;
64633;SDS011;51043;52.406;9.690;2024-01-30T04:09:52;17.87;;;11.43;;
64633;SDS011;51043;52.406;9.690;2024-01-30T04:12:23;16.43;;;11.47;;
64633;SDS011;51043;52.406;9.690;2024-01-30T04:14:51;17.33;;;11.50;;
64633;SDS011;51043;52.406;9.690;2024-01-30T04:17:20;17.10;;;11.57;;
64633;SDS011;51043;52.406;9.690;2024-01-30T04:19:49;15.83;;;11.03;;
64633;SDS011;51043;52.406;9.690;2024-01-30T04:22:17;18.63;;;11.17;;
64633;SDS011;51043;52.406;9.690;2024-01-30T04:24:47;17.00;;;11.47;;
64633;SDS011;51043;52.406;9.690;2024-01-30T04:27:17;14.73;;;10.87;;
64633;SDS011;51043;52.406;9.690;2024-01-30T04:29:45;20.67;;;11.07;;
64633;SDS011;51043;52.406;9.690;2024-01-30T04:32:13;17.60;;;10.77;;
64633;SDS011;51043;52.406;9.690;2024-01-30T04:34:42;16.57;;;11.70;;
64633;SDS011;51043;52.406;9.690;2024-01-30T04:37:10;15.63;;;10.93;;
64633;SDS011;51043;52.406;9.690;2024-01-30T04:39:38;15.17;;;11.53;;
64633;SDS011;51043;52.406;9.690;2024-01-30T04:42:08;18.10;;;11.40;;
64633;SDS011;51043;52.406;9.690;2024-01-30T04:44:36;15.30;;;11.23;;
64633;SDS011;51043;52.406;9.690;2024-01-30T04:47:04;15.83;;;11.30;;
64633;SDS011;51043;52.406;9.690;2024-01-30T04:49:35;20.83;;;11.90;;
64633;SDS011;51043;52.406;9.690;2024-01-30T04:52:03;13.60;;;11.40;;
64633;SDS011;51043;52.406;9.690;2024-01-30T04:54:32;16.37;;;12.30;;
64633;SDS011;51043;52.406;9.690;2024-01-30T04:57:01;18.77;;;11.53;;
64633;SDS011;51043;52.406;9.690;2024-01-30T04:59:31;15.47;;;11.67;;
64633;SDS011;51043;52.406;9.690;2024-01-30T05:01:59;17.77;;;11.93;;
64633;SDS011;51043;52.406;9.690;2024-01-30T05:04:27;18.63;;;12.30;;
64633;SDS011;51043;52.406;9.690;2024-01-30T05:06:55;19.10;;;12.10;;
64633;SDS011;51043;52.406;9.690;2024-01-30T05:09:24;16.27;;;11.47;;
64633;SDS011;51043;52.406;9.690;2024-01-30T05:11:52;16.10;;;11.50;;
64633;SDS011;51043;52.406;9.690;2024-01-30T05:14:20;18.00;;;12.23;;
64633;SDS011;51043;52.406;9.690;2024-01-30T05:16:49;16.83;;;12.00;;
64633;SDS011;51043;52.406;9.690;2024-01-30T05:19:17;16.00;;;11.50;;
64633;SDS011;51043;52.406;9.690;2024-01-30T05:21:46;17.67;;;11.90;;
64633;SDS011;51043;52.406;9.690;2024-01-30T05:24:14;14.17;;;10.80;;
64633;SDS011;51043;52.406;9.690;2024-01-30T05:26:43;13.77;;;10.20;;
64633;SDS011;51043;52.406;9.690;2024-01-30T05:29:13;13.73;;;10.23;;
64633;SDS011;51043;52.406;9.690;2024-01-30T05:31:41;20.03;;;11.33;;
64633;SDS011;51043;52.406;9.690;2024-01-30T05:34:11;17.23;;;9.93;;
64633;SDS011;51043;52.406;9.690;2024-01-30T05:36:40;15.57;;;10.07;;
64633;SDS011;51043;52.406;9.690;2024-01-30T05:39:08;16.23;;;9.90;;
64633;SDS011;51043;52.406;9.690;2024-01-30T05:41:36;15.30;;;10.07;;
64633;SDS011;51043;52.406;9.690;2024-01-30T05:44:04;12.00;;;9.37;;
64633;SDS011;51043;52.406;9.690;2024-01-30T05:46:32;15.57;;;9.83;;
64633;SDS011;51043;52.406;9.690;2024-01-30T05:49:02;13.20;;;9.50;;
64633;SDS011;51043;52.406;9.690;2024-01-30T05:51:32;12.73;;;9.40;;
64633;SDS011;51043;52.406;9.690;2024-01-30T05:54:00;16.10;;;9.73;;
64633;SDS011;51043;52.406;9.690;2024-01-30T05:56:29;14.33;;;9.57;;
64633;SDS011;51043;52.406;9.690;2024-01-30T05:58:57;15.40;;;9.23;;
64633;SDS011;51043;52.406;9.690;2024-01-30T06:01:26;15.60;;;9.20;;
64633;SDS011;51043;52.406;9.690;2024-01-30T06:03:55;14.87;;;9.63;;
64633;SDS011;51043;52.406;9.690;2024-01-30T06:06:24;12.77;;;9.30;;
64633;SDS011;51043;52.406;9.690;2024-01-30T06:08:54;13.40;;;9.43;;
64633;SDS011;51043;52.406;9.690;2024-01-30T06:11:23;12.03;;;9.10;;
64633;SDS011;51043;52.406;9.690;2024-01-30T06:13:51;16.87;;;9.47;;
64633;SDS011;51043;52.406;9.690;2024-01-30T06:16:19;14.57;;;8.83;;
64633;SDS011;51043;52.406;9.690;2024-01-30T06:18:49;13.73;;;9.30;;
64633;SDS011;51043;52.406;9.690;2024-01-30T06:21:17;15.83;;;9.60;;
64633;SDS011;51043;52.406;9.690;2024-01-30T06:23:46;12.37;;;9.90;;
64633;SDS011;51043;52.406;9.690;2024-01-30T06:26:15;16.30;;;9.53;;
64633;SDS011;51043;52.406;9.690;2024-01-30T06:28:44;14.47;;;9.60;;
64633;SDS011;51043;52.406;9.690;2024-01-30T06:31:11;16.83;;;10.13;;
64633;SDS011;51043;52.406;9.690;2024-01-30T06:33:39;13.83;;;9.20;;
64633;SDS011;51043;52.406;9.690;2024-01-30T06:36:08;18.67;;;9.53;;
64633;SDS011;51043;52.406;9.690;2024-01-30T06:38:36;14.93;;;9.70;;
64633;SDS011;51043;52.406;9.690;2024-01-30T06:41:04;19.03;;;10.20;;
64633;SDS011;51043;52.406;9.690;2024-01-30T06:43:35;11.93;;;9.20;;
64633;SDS011;51043;52.406;9.690;2024-01-30T06:46:06;12.70;;;9.33;;
64633;SDS011;51043;52.406;9.690;2024-01-30T06:48:34;13.37;;;8.43;;
64633;SDS011;51043;52.406;9.690;2024-01-30T06:51:02;14.20;;;9.20;;
64633;SDS011;51043;52.406;9.690;2024-01-30T06:53:30;14.93;;;9.77;;
64633;SDS011;51043;52.406;9.690;2024-01-30T06:55:58;14.27;;;9.60;;
64633;SDS011;51043;52.406;9.690;2024-01-30T06:58:26;12.33;;;8.37;;
64633;SDS011;51043;52.406;9.690;2024-01-30T07:00:55;11.73;;;8.50;;
64633;SDS011;51043;52.406;9.690;2024-01-30T07:03:24;11.43;;;8.53;;
64633;SDS011;51043;52.406;9.690;2024-01-30T07:05:52;13.03;;;8.97;;
64633;SDS011;51043;52.406;9.690;2024-01-30T07:08:20;12.33;;;8.50;;
64633;SDS011;51043;52.406;9.690;2024-01-30T07:10:49;15.70;;;9.67;;
64633;SDS011;51043;52.406;9.690;2024-01-30T07:13:23;16.07;;;9.13;;
64633;SDS011;51043;52.406;9.690;2024-01-30T07:15:52;11.97;;;8.40;;
64633;SDS011;51043;52.406;9.690;2024-01-30T07:18:21;12.67;;;8.77;;
64633;SDS011;51043;52.406;9.690;2024-01-30T07:20:51;10.33;;;8.27;;
64633;SDS011;51043;52.406;9.690;2024-01-30T07:23:19;12.73;;;9.27;;
64633;SDS011;51043;52.406;9.690;2024-01-30T07:25:53;12.10;;;8.50;;
64633;SDS011;51043;52.406;9.690;2024-01-30T07:28:21;11.53;;;8.60;;
64633;SDS011;51043;52.406;9.690;2024-01-30T07:30:52;13.03;;;8.60;;
64633;SDS011;51043;52.406;9.690;2024-01-30T07:33:22;12.33;;;8.83;;
64633;SDS011;51043;52.406;9.690;2024-01-30T07:35:51;15.13;;;8.47;;
64633;SDS011;51043;52.406;9.690;2024-01-30T07:38:21;14.00;;;9.10;;
64633;SDS011;51043;52.406;9.690;2024-01-30T07:40:50;13.83;;;8.43;;
64633;SDS011;51043;52.406;9.690;2024-01-30T07:43:18;12.17;;;8.63;;
64633;SDS011;51043;52.406;9.690;2024-01-30T07:45:50;15.60;;;9.20;;
64633;SDS011;51043;52.406;9.690;2024-01-30T07:48:19;12.17;;;8.47;;
64633;SDS011;51043;52.406;9.690;2024-01-30T07:50:51;13.90;;;8.83;;
64633;SDS011;51043;52.406;9.690;2024-01-30T07:53:20;14.03;;;9.47;;
64633;SDS011;51043;52.406;9.690;2024-01-30T07:55:49;11.47;;;8.60;;
64633;SDS011;51043;52.406;9.690;2024-01-30T07:58:17;12.57;;;8.40;;
64633;SDS011;51043;52.406;9.690;2024-01-30T08:00:46;11.20;;;8.37;;
64633;SDS011;51043;52.406;9.690;2024-01-30T08:03:14;12.93;;;8.87;;
64633;SDS011;51043;52.406;9.690;2024-01-30T08:05:46;9.97;;;8.27;;
64633;SDS011;51043;52.406;9.690;2024-01-30T08:08:14;13.60;;;9.17;;
64633;SDS011;51043;52.406;9.690;2024-01-30T08:10:42;17.83;;;8.20;;
64633;SDS011;51043;52.406;9.690;2024-01-30T08:13:10;11.67;;;8.67;;
64633;SDS011;51043;52.406;9.690;2024-01-30T08:15:38;10.23;;;7.87;;
64633;SDS011;51043;52.406;9.690;2024-01-30T08:18:06;13.33;;;8.60;;
64633;SDS011;51043;52.406;9.690;2024-01-30T08:20:34;9.77;;;6.90;;
64633;SDS011;51043;52.406;9.690;2024-01-30T08:23:04;12.47;;;7.60;;
64633;SDS011;51043;52.406;9.690;2024-01-30T08:25:33;18.87;;;8.47;;
64633;SDS011;51043;52.406;9.690;2024-01-30T08:28:03;10.53;;;7.60;;
64633;SDS011;51043;52.406;9.690;2024-01-30T08:30:36;14.13;;;7.80;;
64633;SDS011;51043;52.406;9.690;2024-01-30T08:33:05;11.77;;;7.67;;
64633;SDS011;51043;52.406;9.690;2024-01-30T08:35:34;15.87;;;8.70;;
64633;SDS011;51043;52.406;9.690;2024-01-30T08:38:09;12.93;;;8.70;;
64633;SDS011;51043;52.406;9.690;2024-01-30T08:40:38;13.93;;;8.13;;
64633;SDS011;51043;52.406;9.690;2024-01-30T08:43:08;12.87;;;8.30;;
64633;SDS011;51043;52.406;9.690;2024-01-30T08:45:38;17.87;;;8.97;;
64633;SDS011;51043;52.406;9.690;2024-01-30T08:48:06;13.43;;;8.70;;
64633;SDS011;51043;52.406;9.690;2024-01-30T08:50:37;14.17;;;8.77;;
64633;SDS011;51043;52.406;9.690;2024-01-30T08:53:06;12.10;;;8.20;;
64633;SDS011;51043;52.406;9.690;2024-01-30T08:55:37;12.80;;;8.00;;
64633;SDS011;51043;52.406;9.690;2024-01-30T08:58:06;15.83;;;8.00;;
64633;SDS011;51043;52.406;9.690;2024-01-30T09:00:34;15.07;;;7.97;;
64633;SDS011;51043;52.406;9.690;2024-01-30T09:03:02;14.83;;;8.53;;
64633;SDS011;51043;52.406;9.690;2024-01-30T09:05:30;11.83;;;8.13;;
64633;SDS011;51043;52.406;9.690;2024-01-30T09:07:59;12.73;;;8.10;;
64633;SDS011;51043;52.406;9.690;2024-01-30T09:10:28;10.63;;;8.50;;
64633;SDS011;51043;52.406;9.690;2024-01-30T09:12:57;11.57;;;7.50;;
64633;SDS011;51043;52.406;9.690;2024-01-30T09:15:25;11.27;;;7.63;;
64633;SDS011;51043;52.406;9.690;2024-01-30T09:17:53;13.63;;;8.23;;
64633;SDS011;51043;52.406;9.690;2024-01-30T09:20:23;18.40;;;8.33;;
64633;SDS011;51043;52.406;9.690;2024-01-30T09:22:53;11.57;;;7.73;;
64633;SDS011;51043;52.406;9.690;2024-01-30T09:25:23;14.63;;;7.23;;
64633;SDS011;51043;52.406;9.690;2024-01-30T09:27:56;13.27;;;7.40;;
64633;SDS011;51043;52.406;9.690;2024-01-30T09:30:25;15.07;;;7.60;;
64633;SDS011;51043;52.406;9.690;2024-01-30T09:32:55;11.67;;;7.50;;
64633;SDS011;51043;52.406;9.690;2024-01-30T09:35:23;10.83;;;7.33;;
64633;SDS011;51043;52.406;9.690;2024-01-30T09:37:55;12.60;;;7.47;;
64633;SDS011;51043;52.406;9.690;2024-01-30T09:40:27;9.17;;;6.90;;
64633;SDS011;51043;52.406;9.690;2024-01-30T09:42:57;10.07;;;6.83;;
64633;SDS011;51043;52.406;9.690;2024-01-30T09:45:28;10.53;;;7.17;;
64633;SDS011;51043;52.406;9.690;2024-01-30T09:48:01;10.57;;;7.13;;
64633;SDS011;51043;52.406;9.690;2024-01-30T09:50:30;13.57;;;7.50;;
64633;SDS011;51043;52.406;9.690;2024-01-30T09:52:58;12.90;;;7.40;;
64633;SDS011;51043;52.406;9.690;2024-01-30T09:55:29;10.90;;;7.43;;
64633;SDS011;51043;52.406;9.690;2024-01-30T09:57:59;15.93;;;7.30;;
64633;SDS011;51043;52.406;9.690;2024-01-30T10:00:27;11.83;;;7.20;;
64633;SDS011;51043;52.406;9.690;2024-01-30T10:02:55;10.17;;;7.33;;
64633;SDS011;51043;52.406;9.690;2024-01-30T10:05:24;13.47;;;7.20;;
64633;SDS011;51043;52.406;9.690;2024-01-30T10:07:55;10.67;;;7.13;;
64633;SDS011;51043;52.406;9.690;2024-01-30T10:10:25;10.53;;;6.20;;
64633;SDS011;51043;52.406;9.690;2024-01-30T10:12:55;9.87;;;7.30;;
64633;SDS011;51043;52.406;9.690;2024-01-30T10:15:25;12.07;;;7.50;;
64633;SDS011;51043;52.406;9.690;2024-01-30T10:17:56;15.10;;;7.40;;
64633;SDS011;51043;52.406;9.690;2024-01-30T10:20:25;10.80;;;6.93;;
64633;SDS011;51043;52.406;9.690;2024-01-30T10:22:53;11.80;;;6.53;;
64633;SDS011;51043;52.406;9.690;2024-01-30T10:25:21;9.93;;;7.07;;
64633;SDS011;51043;52.406;9.690;2024-01-30T10:27:52;11.63;;;7.33;;
64633;SDS011;51043;52.406;9.690;2024-01-30T10:30:21;9.97;;;6.77;;
64633;SDS011;51043;52.406;9.690;2024-01-30T10:32:52;10.30;;;6.90;;
64633;SDS011;51043;52.406;9.690;2024-01-30T10:35:20;9.57;;;6.40;;
64633;SDS011;51043;52.406;9.690;2024-01-30T10:37:48;9.83;;;6.57;;
64633;SDS011;51043;52.406;9.690;2024-01-30T10:40:17;11.47;;;6.70;;
64633;SDS011;51043;52.406;9.690;2024-01-30T10:42:51;9.50;;;6.40;;
64633;SDS011;51043;52.406;9.690;2024-01-30T10:45:22;10.27;;;6.90;;
64633;SDS011;51043;52.406;9.690;2024-01-30T10:47:55;10.60;;;6.90;;
64633;SDS011;51043;52.406;9.690;2024-01-30T10:50:26;9.83;;;6.67;;
64633;SDS011;51043;52.406;9.690;2024-01-30T10:52:56;10.07;;;6.43;;
64633;SDS011;51043;52.406;9.690;2024-01-30T10:55:29;11.67;;;7.20;;
64633;SDS011;51043;52.406;9.690;2024-01-30T10:57:59;11.27;;;7.10;;
64633;SDS011;51043;52.406;9.690;2024-01-30T11:00:27;8.40;;;6.63;;
64633;SDS011;51043;52.406;9.690;2024-01-30T11:03:00;10.13;;;7.00;;
64633;SDS011;51043;52.406;9.690;2024-01-30T11:05:30;13.73;;;7.30;;
64633;SDS011;51043;52.406;9.690;2024-01-30T11:07:58;10.43;;;6.67;;
64633;SDS011;51043;52.406;9.690;2024-01-30T11:10:30;9.30;;;7.00;;
64633;SDS011;51043;52.406;9.690;2024-01-30T11:12:59;10.67;;;6.83;;
64633;SDS011;51043;52.406;9.690;2024-01-30T11:15:37;9.80;;;7.07;;
64633;SDS011;51043;52.406;9.690;2024-01-30T11:18:06;10.77;;;6.90;;
64633;SDS011;51043;52.406;9.690;2024-01-30T11:20:35;10.87;;;7.40;;
64633;SDS011;51043;52.406;9.690;2024-01-30T11:23:03;10.87;;;7.30;;
64633;SDS011;51043;52.406;9.690;2024-01-30T11:25:32;9.83;;;7.20;;
64633;SDS011;51043;52.406;9.690;2024-01-30T11:28:00;9.90;;;7.20;;
64633;SDS011;51043;52.406;9.690;2024-01-30T11:30:30;10.57;;;6.60;;
64633;SDS011;51043;52.406;9.690;2024-01-30T11:33:00;10.23;;;7.13;;
64633;SDS011;51043;52.406;9.690;2024-01-30T11:35:34;12.40;;;6.83;;
64633;SDS011;51043;52.406;9.690;2024-01-30T11:38:03;14.40;;;7.27;;
64633;SDS011;51043;52.406;9.690;2024-01-30T11:40:33;10.27;;;7.53;;
64633;SDS011;51043;52.406;9.690;2024-01-30T11:43:03;12.10;;;7.43;;
64633;SDS011;51043;52.406;9.690;2024-01-30T11:45:33;9.57;;;7.23;;
64633;SDS011;51043;52.406;9.690;2024-01-30T11:48:01;11.33;;;7.47;;
64633;SDS011;51043;52.406;9.690;2024-01-30T11:50:34;13.43;;;7.47;;
64633;SDS011;51043;52.406;9.690;2024-01-30T11:53:08;12.07;;;7.27;;
64633;SDS011;51043;52.406;9.690;2024-01-30T11:55:36;11.23;;;7.43;;
64633;SDS011;51043;52.406;9.690;2024-01-30T11:58:08;14.10;;;7.10;;
64633;SDS011;51043;52.406;9.690;2024-01-30T12:00:36;9.17;;;6.80;;
64633;SDS011;51043;52.406;9.690;2024-01-30T12:03:05;16.80;;;6.53;;
64633;SDS011;51043;52.406;9.690;2024-01-30T12:05:35;11.63;;;6.77;;
64633;SDS011;51043;52.406;9.690;2024-01-30T12:08:14;9.60;;;6.53;;
64633;SDS011;51043;52.406;9.690;2024-01-30T12:10:42;10.33;;;6.60;;
64633;SDS011;51043;52.406;9.690;2024-01-30T12:13:11;9.57;;;6.43;;
64633;SDS011;51043;52.406;9.690;2024-01-30T12:15:41;10.40;;;6.57;;
64633;SDS011;51043;52.406;9.690;2024-01-30T12:18:11;13.20;;;6.67;;
64633;SDS011;51043;52.406;9.690;2024-01-30T12:20:41;10.47;;;6.50;;
64633;SDS011;51043;52.406;9.690;2024-01-30T12:23:11;9.93;;;6.23;;
64633;SDS011;51043;52.406;9.690;2024-01-30T12:25:40;15.03;;;6.87;;
64633;SDS011;51043;52.406;9.690;2024-01-30T12:28:08;10.80;;;6.43;;
64633;SDS011;51043;52.406;9.690;2024-01-30T12:30:38;10.13;;;6.17;;
64633;SDS011;51043;52.406;9.690;2024-01-30T12:33:06;13.70;;;6.50;;
64633;SDS011;51043;52.406;9.690;2024-01-30T12:35:36;10.80;;;6.70;;
64633;SDS011;51043;52.406;9.690;2024-01-30T12:38:08;12.50;;;6.47;;
64633;SDS011;51043;52.406;9.690;2024-01-30T12:40:36;9.93;;;6.23;;
64633;SDS011;51043;52.406;9.690;2024-01-30T12:43:06;11.87;;;5.67;;
64633;SDS011;51043;52.406;9.690;2024-01-30T12:45:35;9.20;;;5.87;;
64633;SDS011;51043;52.406;9.690;2024-01-30T12:48:04;10.83;;;5.93;;
64633;SDS011;51043;52.406;9.690;2024-01-30T12:50:32;10.40;;;6.23;;
64633;SDS011;51043;52.406;9.690;2024-01-30T12:53:00;7.50;;;5.63;;
64633;SDS011;51043;52.406;9.690;2024-01-30T12:55:30;11.37;;;6.10;;
64633;SDS011;51043;52.406;9.690;2024-01-30T12:57:59;10.40;;;6.17;;
64633;SDS011;51043;52.406;9.690;2024-01-30T13:00:27;13.57;;;7.67;;
64633;SDS011;51043;52.406;9.690;2024-01-30T13:02:56;17.67;;;10.43;;
64633;SDS011;51043;52.406;9.690;2024-01-30T13:05:27;8.67;;;5.23;;
64633;SDS011;51043;52.406;9.690;2024-01-30T13:08:02;11.07;;;6.90;;
64633;SDS011;51043;52.406;9.690;2024-01-30T13:10:32;11.17;;;6.57;;
64633;SDS011;51043;52.406;9.690;2024-01-30T13:13:01;9.50;;;6.30;;
64633;SDS011;51043;52.406;9.690;2024-01-30T13:15:32;9.53;;;5.47;;
64633;SDS011;51043;52.406;9.690;2024-01-30T13:18:01;14.57;;;7.63;;
64633;SDS011;51043;52.406;9.690;2024-01-30T13:20:30;17.20;;;8.80;;
64633;SDS011;51043;52.406;9.690;2024-01-30T13:22:58;14.47;;;7.43;;
64633;SDS011;51043;52.406;9.690;2024-01-30T13:25:26;16.47;;;7.27;;
64633;SDS011;51043;52.406;9.690;2024-01-30T13:27:57;10.87;;;5.97;;
64633;SDS011;51043;52.406;9.690;2024-01-30T13:30:25;12.90;;;6.63;;
64633;SDS011;51043;52.406;9.690;2024-01-30T13:32:53;10.37;;;6.70;;
64633;SDS011;51043;52.406;9.690;2024-01-30T13:35:21;11.67;;;7.00;;
64633;SDS011;51043;52.406;9.690;2024-01-30T13:37:49;15.97;;;8.07;;
64633;SDS011;51043;52.406;9.690;2024-01-30T13:40:17;9.40;;;7.23;;
64633;SDS011;51043;52.406;9.690;2024-01-30T13:42:45;13.77;;;8.67;;
64633;SDS011;51043;52.406;9.690;2024-01-30T13:45:15;17.67;;;8.27;;
64633;SDS011;51043;52.406;9.690;2024-01-30T13:47:43;8.90;;;6.53;;
64633;SDS011;51043;52.406;9.690;2024-01-30T13:50:12;9.17;;;6.47;;
64633;SDS011;51043;52.406;9.690;2024-01-30T13:52:42;11.80;;;7.07;;
64633;SDS011;51043;52.406;9.690;2024-01-30T13:55:11;12.10;;;7.37;;
64633;SDS011;51043;52.406;9.690;2024-01-30T13:57:39;12.33;;;6.80;;
64633;SDS011;51043;52.406;9.690;2024-01-30T14:00:08;15.40;;;8.23;;
64633;SDS011;51043;52.406;9.690;2024-01-30T14:02:41;12.90;;;7.87;;
64633;SDS011;51043;52.406;9.690;2024-01-30T14:05:09;14.87;;;9.03;;
64633;SDS011;51043;52.406;9.690;2024-01-30T14:07:37;12.50;;;7.90;;
64633;SDS011;51043;52.406;9.690;2024-01-30T14:10:06;18.50;;;7.90;;
64633;SDS011;51043;52.406;9.690;2024-01-30T14:12:35;12.40;;;6.90;;
64633;SDS011;51043;52.406;9.690;2024-01-30T14:15:03;13.37;;;7.50;;
64633;SDS011;51043;52.406;9.690;2024-01-30T14:17:34;15.23;;;7.73;;
64633;SDS011;51043;52.406;9.690;2024-01-30T14:20:05;9.57;;;6.40;;
64633;SDS011;51043;52.406;9.690;2024-01-30T14:22:34;11.77;;;6.70;;
64633;SDS011;51043;52.406;9.690;2024-01-30T14:25:03;17.23;;;7.63;;
64633;SDS011;51043;52.406;9.690;2024-01-30T14:27:32;18.43;;;7.43;;
64633;SDS011;51043;52.406;9.690;2024-01-30T14:30:02;12.00;;;7.30;;
64633;SDS011;51043;52.406;9.690;2024-01-30T14:32:34;18.70;;;7.87;;
64633;SDS011;51043;52.406;9.690;2024-01-30T14:35:02;15.17;;;7.10;;
64633;SDS011;51043;52.406;9.690;2024-01-30T14:37:34;18.73;;;7.77;;
64633;SDS011;51043;52.406;9.690;2024-01-30T14:40:09;12.97;;;7.17;;
64633;SDS011;51043;52.406;9.690;2024-01-30T14:42:38;13.70;;;7.13;;